Schleswig Jagel, Germany

1:01 PM CEST on September 17, 2014 (GMT +0200)
Schleswig Air Base | Change Station
CLOSE
Current Station
Airport
Location: Schleswig Jagel,
Elevation: 82 ft
Nearby Weather Stations

Elev 82 ft 54.46 °N, 9.52 °E | Updated 41 minutes ago

Scattered Clouds
Scattered Clouds
68 °F
Feels Like 68 °F
N
14
Wind Variable Wind from ENE

Today
High -- | Low -- °F
--% Chance of Precip.
Yesterday
High -- | Low -- °F
Precip. -- in
6:57 AM 7:33 PM
Last Quarter, 37% visible
Pressure 30.06 in
Visibility 6.2 miles
Clouds Few 5000 ft
Scattered Clouds 23000 ft
Dew Point 59 °F
Humidity 73%
Rainfall 0.00 in
Snow Depth Not available.
UV 4 out of 12
Pollen Not available.
Air Quality Not available.
Flu Activity Not available.
METAR ETNS 171020Z 07012KT 9999 FEW050 SCT230 20/15 Q1018 BLU+BLU+

More Conditions Fewer Conditions

Pressure 30.06 in
Visibility 6.2 miles
Clouds Few 5000 ft
Scattered Clouds 23000 ft
Dew Point 59 °F
Humidity 73%
Rainfall 0.00 in
Snow Depth Not available.
UV 4 out of 12
Pollen Not available.
Air Quality Not available.
Flu Activity Not available.
METAR ETNS 171020Z 07012KT 9999 FEW050 SCT230 20/15 Q1018 BLU+BLU+

More Conditions Fewer Conditions

10-Day Weather Forecast

Almanac

Astronomy

Sep. 17, 2014 Rise Set
Actual Time 6:57 AM CEST 7:33 PM CEST
Civil Twilight 6:21 AM CEST 8:09 PM CEST
Nautical Twilight 5:38 AM CEST 8:52 PM CEST
Astronomical Twilight 4:52 AM CEST 9:38 PM CEST
Moon 12:02 AM CEST 4:10 PM CEST
Length of Visible Light 13h 47m
Length of Day
12h 35m
Tomorrow will be 4m 21s shorter.
Last Quarter, 37% of the Moon is Illuminated
Today
Last Quarter
Sep 24
New
Oct 1
First Quarter
Oct 8
Full
Oct 15
Last Quarter

Yesterday's Extremes

Country Highs Country Lows

Community

WunderPhotos

Upload Photos

1,753,998 photos uploaded!

Nearby

Snow Depth

Not available.

Earthquake Activity

City Distance Mag. Time & Date
No recent earthquake activity has been reported nearby.
Minimum magnitude displayed is 2.5.

Coastal Water Temperatures

Place Temperature
No Stations Reporting

Nearby Weather Stations